sensor_id;sensor_type;location;lat;lon;timestamp;P1;durP1;ratioP1;P2;durP2;ratioP2
48487;SDS011;34289;48.572;13.378;2023-02-08T00:01:17;15.23;;;10.40;;
48487;SDS011;34289;48.572;13.378;2023-02-08T00:03:44;15.65;;;11.02;;
48487;SDS011;34289;48.572;13.378;2023-02-08T00:06:11;14.65;;;10.55;;
48487;SDS011;34289;48.572;13.378;2023-02-08T00:08:37;17.95;;;10.98;;
48487;SDS011;34289;48.572;13.378;2023-02-08T00:11:03;16.75;;;11.45;;
48487;SDS011;34289;48.572;13.378;2023-02-08T00:13:30;16.33;;;12.05;;
48487;SDS011;34289;48.572;13.378;2023-02-08T00:15:56;17.92;;;11.27;;
48487;SDS011;34289;48.572;13.378;2023-02-08T00:18:22;16.95;;;12.10;;
48487;SDS011;34289;48.572;13.378;2023-02-08T00:20:48;16.65;;;12.00;;
48487;SDS011;34289;48.572;13.378;2023-02-08T00:23:14;23.48;;;10.85;;
48487;SDS011;34289;48.572;13.378;2023-02-08T00:25:40;16.50;;;11.13;;
48487;SDS011;34289;48.572;13.378;2023-02-08T00:28:07;14.25;;;10.30;;
48487;SDS011;34289;48.572;13.378;2023-02-08T00:30:35;18.23;;;12.35;;
48487;SDS011;34289;48.572;13.378;2023-02-08T00:33:01;20.75;;;15.05;;
48487;SDS011;34289;48.572;13.378;2023-02-08T00:35:27;24.20;;;14.15;;
48487;SDS011;34289;48.572;13.378;2023-02-08T00:37:54;18.95;;;11.73;;
48487;SDS011;34289;48.572;13.378;2023-02-08T00:40:20;21.70;;;11.45;;
48487;SDS011;34289;48.572;13.378;2023-02-08T00:42:45;13.70;;;9.68;;
48487;SDS011;34289;48.572;13.378;2023-02-08T00:45:11;16.08;;;10.52;;
48487;SDS011;34289;48.572;13.378;2023-02-08T00:47:37;18.50;;;12.32;;
48487;SDS011;34289;48.572;13.378;2023-02-08T00:50:03;19.50;;;11.82;;
48487;SDS011;34289;48.572;13.378;2023-02-08T00:52:29;16.08;;;11.15;;
48487;SDS011;34289;48.572;13.378;2023-02-08T00:54:54;16.75;;;10.98;;
48487;SDS011;34289;48.572;13.378;2023-02-08T00:57:20;19.20;;;11.52;;
48487;SDS011;34289;48.572;13.378;2023-02-08T00:59:46;19.52;;;11.73;;
48487;SDS011;34289;48.572;13.378;2023-02-08T01:02:12;23.00;;;10.98;;
48487;SDS011;34289;48.572;13.378;2023-02-08T01:04:37;16.92;;;11.13;;
48487;SDS011;34289;48.572;13.378;2023-02-08T01:07:04;15.60;;;10.25;;
48487;SDS011;34289;48.572;13.378;2023-02-08T01:09:30;18.30;;;11.95;;
48487;SDS011;34289;48.572;13.378;2023-02-08T01:11:56;15.88;;;11.10;;
48487;SDS011;34289;48.572;13.378;2023-02-08T01:14:22;19.15;;;11.93;;
48487;SDS011;34289;48.572;13.378;2023-02-08T01:16:48;18.75;;;12.02;;
48487;SDS011;34289;48.572;13.378;2023-02-08T01:19:14;15.98;;;11.30;;
48487;SDS011;34289;48.572;13.378;2023-02-08T01:21:40;19.88;;;12.10;;
48487;SDS011;34289;48.572;13.378;2023-02-08T01:24:09;18.10;;;10.95;;
48487;SDS011;34289;48.572;13.378;2023-02-08T01:26:36;14.68;;;10.82;;
48487;SDS011;34289;48.572;13.378;2023-02-08T01:29:02;10.82;;;9.63;;
48487;SDS011;34289;48.572;13.378;2023-02-08T01:31:32;12.07;;;9.10;;
48487;SDS011;34289;48.572;13.378;2023-02-08T01:34:00;13.35;;;10.15;;
48487;SDS011;34289;48.572;13.378;2023-02-08T01:36:26;17.40;;;11.65;;
48487;SDS011;34289;48.572;13.378;2023-02-08T01:38:53;17.42;;;11.23;;
48487;SDS011;34289;48.572;13.378;2023-02-08T01:41:26;23.73;;;12.45;;
48487;SDS011;34289;48.572;13.378;2023-02-08T01:43:57;16.30;;;11.38;;
48487;SDS011;34289;48.572;13.378;2023-02-08T01:46:26;18.65;;;11.68;;
48487;SDS011;34289;48.572;13.378;2023-02-08T01:48:53;13.02;;;10.63;;
48487;SDS011;34289;48.572;13.378;2023-02-08T01:51:25;16.35;;;10.73;;
48487;SDS011;34289;48.572;13.378;2023-02-08T01:53:55;17.60;;;10.25;;
48487;SDS011;34289;48.572;13.378;2023-02-08T01:56:24;14.98;;;11.35;;
48487;SDS011;34289;48.572;13.378;2023-02-08T01:58:53;13.63;;;9.48;;
48487;SDS011;34289;48.572;13.378;2023-02-08T02:01:21;14.63;;;10.48;;
48487;SDS011;34289;48.572;13.378;2023-02-08T02:03:49;15.75;;;9.68;;
48487;SDS011;34289;48.572;13.378;2023-02-08T02:06:16;15.50;;;10.45;;
48487;SDS011;34289;48.572;13.378;2023-02-08T02:08:48;17.92;;;12.15;;
48487;SDS011;34289;48.572;13.378;2023-02-08T02:11:19;12.65;;;9.48;;
48487;SDS011;34289;48.572;13.378;2023-02-08T02:13:44;13.18;;;8.88;;
48487;SDS011;34289;48.572;13.378;2023-02-08T02:16:11;17.08;;;10.68;;
48487;SDS011;34289;48.572;13.378;2023-02-08T02:18:37;11.13;;;9.88;;
48487;SDS011;34289;48.572;13.378;2023-02-08T02:23:47;19.30;;;10.97;;
48487;SDS011;34289;48.572;13.378;2023-02-08T02:27:21;20.80;;;12.85;;
48487;SDS011;34289;48.572;13.378;2023-02-08T02:29:47;15.77;;;11.57;;
48487;SDS011;34289;48.572;13.378;2023-02-08T02:35:05;15.18;;;9.68;;
48487;SDS011;34289;48.572;13.378;2023-02-08T02:43:41;17.63;;;10.65;;
48487;SDS011;34289;48.572;13.378;2023-02-08T02:46:32;14.98;;;10.88;;
48487;SDS011;34289;48.572;13.378;2023-02-08T02:54:20;18.50;;;11.25;;
48487;SDS011;34289;48.572;13.378;2023-02-08T02:56:51;13.40;;;9.88;;
48487;SDS011;34289;48.572;13.378;2023-02-08T02:59:20;16.35;;;10.95;;
48487;SDS011;34289;48.572;13.378;2023-02-08T03:01:46;20.88;;;11.93;;
48487;SDS011;34289;48.572;13.378;2023-02-08T03:12:03;15.18;;;10.43;;
48487;SDS011;34289;48.572;13.378;2023-02-08T03:17:56;14.38;;;10.30;;
48487;SDS011;34289;48.572;13.378;2023-02-08T03:20:40;16.52;;;11.18;;
48487;SDS011;34289;48.572;13.378;2023-02-08T03:26:06;15.60;;;11.30;;
48487;SDS011;34289;48.572;13.378;2023-02-08T03:31:40;11.98;;;10.20;;
48487;SDS011;34289;48.572;13.378;2023-02-08T03:34:34;19.88;;;11.88;;
48487;SDS011;34289;48.572;13.378;2023-02-08T03:37:11;16.90;;;12.18;;
48487;SDS011;34289;48.572;13.378;2023-02-08T03:39:45;15.90;;;9.90;;
48487;SDS011;34289;48.572;13.378;2023-02-08T03:42:15;26.77;;;11.25;;
48487;SDS011;34289;48.572;13.378;2023-02-08T03:44:47;13.15;;;10.38;;
48487;SDS011;34289;48.572;13.378;2023-02-08T03:47:22;16.73;;;11.35;;
48487;SDS011;34289;48.572;13.378;2023-02-08T03:49:51;17.88;;;11.10;;
48487;SDS011;34289;48.572;13.378;2023-02-08T03:52:19;11.90;;;9.27;;
48487;SDS011;34289;48.572;13.378;2023-02-08T03:54:51;15.50;;;10.65;;
48487;SDS011;34289;48.572;13.378;2023-02-08T03:57:39;17.05;;;11.40;;
48487;SDS011;34289;48.572;13.378;2023-02-08T04:00:18;20.38;;;11.40;;
48487;SDS011;34289;48.572;13.378;2023-02-08T04:02:55;17.13;;;11.43;;
48487;SDS011;34289;48.572;13.378;2023-02-08T04:05:34;17.13;;;11.27;;
48487;SDS011;34289;48.572;13.378;2023-02-08T04:08:00;13.23;;;10.23;;
48487;SDS011;34289;48.572;13.378;2023-02-08T04:10:26;14.23;;;10.02;;
48487;SDS011;34289;48.572;13.378;2023-02-08T04:12:51;11.55;;;8.88;;
48487;SDS011;34289;48.572;13.378;2023-02-08T04:15:17;14.32;;;10.13;;
48487;SDS011;34289;48.572;13.378;2023-02-08T04:17:46;19.50;;;11.63;;
48487;SDS011;34289;48.572;13.378;2023-02-08T04:20:11;17.05;;;11.93;;
48487;SDS011;34289;48.572;13.378;2023-02-08T04:22:37;16.60;;;11.63;;
48487;SDS011;34289;48.572;13.378;2023-02-08T04:25:03;17.42;;;11.70;;
48487;SDS011;34289;48.572;13.378;2023-02-08T04:27:30;13.57;;;10.25;;
48487;SDS011;34289;48.572;13.378;2023-02-08T04:29:55;20.38;;;11.00;;
48487;SDS011;34289;48.572;13.378;2023-02-08T04:32:21;20.77;;;11.85;;
48487;SDS011;34289;48.572;13.378;2023-02-08T04:34:46;21.80;;;10.65;;
48487;SDS011;34289;48.572;13.378;2023-02-08T04:37:12;17.20;;;10.75;;
48487;SDS011;34289;48.572;13.378;2023-02-08T04:39:38;15.68;;;10.48;;
48487;SDS011;34289;48.572;13.378;2023-02-08T04:42:03;14.07;;;10.35;;
48487;SDS011;34289;48.572;13.378;2023-02-08T04:44:29;20.52;;;10.57;;
48487;SDS011;34289;48.572;13.378;2023-02-08T04:46:58;16.85;;;11.10;;
48487;SDS011;34289;48.572;13.378;2023-02-08T04:49:24;15.38;;;11.00;;
48487;SDS011;34289;48.572;13.378;2023-02-08T04:51:50;18.55;;;11.15;;
48487;SDS011;34289;48.572;13.378;2023-02-08T04:54:15;16.70;;;10.68;;
48487;SDS011;34289;48.572;13.378;2023-02-08T04:56:41;16.45;;;10.50;;
48487;SDS011;34289;48.572;13.378;2023-02-08T04:59:06;19.02;;;10.75;;
48487;SDS011;34289;48.572;13.378;2023-02-08T05:01:32;15.27;;;10.43;;
48487;SDS011;34289;48.572;13.378;2023-02-08T05:03:58;11.05;;;8.80;;
48487;SDS011;34289;48.572;13.378;2023-02-08T05:06:23;19.33;;;11.35;;
48487;SDS011;34289;48.572;13.378;2023-02-08T05:08:49;18.77;;;11.85;;
48487;SDS011;34289;48.572;13.378;2023-02-08T05:11:21;18.88;;;11.60;;
48487;SDS011;34289;48.572;13.378;2023-02-08T05:16:13;18.67;;;11.05;;
48487;SDS011;34289;48.572;13.378;2023-02-08T05:18:39;18.45;;;11.43;;
48487;SDS011;34289;48.572;13.378;2023-02-08T05:21:05;13.02;;;11.38;;
48487;SDS011;34289;48.572;13.378;2023-02-08T05:23:30;23.98;;;11.40;;
48487;SDS011;34289;48.572;13.378;2023-02-08T05:25:57;20.80;;;11.85;;
48487;SDS011;34289;48.572;13.378;2023-02-08T05:28:23;19.20;;;11.90;;
48487;SDS011;34289;48.572;13.378;2023-02-08T05:30:48;12.85;;;10.43;;
48487;SDS011;34289;48.572;13.378;2023-02-08T05:33:14;18.67;;;11.25;;
48487;SDS011;34289;48.572;13.378;2023-02-08T05:35:40;13.05;;;10.25;;
48487;SDS011;34289;48.572;13.378;2023-02-08T05:38:08;8.75;;;7.75;;
48487;SDS011;34289;48.572;13.378;2023-02-08T05:40:33;16.48;;;11.70;;
48487;SDS011;34289;48.572;13.378;2023-02-08T05:43:00;16.20;;;12.07;;
48487;SDS011;34289;48.572;13.378;2023-02-08T05:45:25;20.73;;;12.45;;
48487;SDS011;34289;48.572;13.378;2023-02-08T05:47:51;12.57;;;10.35;;
48487;SDS011;34289;48.572;13.378;2023-02-08T05:50:16;19.92;;;12.10;;
48487;SDS011;34289;48.572;13.378;2023-02-08T05:52:42;18.35;;;12.95;;
48487;SDS011;34289;48.572;13.378;2023-02-08T05:55:08;23.85;;;14.55;;
48487;SDS011;34289;48.572;13.378;2023-02-08T05:57:33;19.23;;;11.32;;
48487;SDS011;34289;48.572;13.378;2023-02-08T05:59:59;23.83;;;13.93;;
48487;SDS011;34289;48.572;13.378;2023-02-08T06:02:24;16.67;;;12.80;;
48487;SDS011;34289;48.572;13.378;2023-02-08T06:04:50;21.63;;;12.77;;
48487;SDS011;34289;48.572;13.378;2023-02-08T06:07:16;13.18;;;9.82;;
48487;SDS011;34289;48.572;13.378;2023-02-08T06:09:41;25.08;;;12.65;;
48487;SDS011;34289;48.572;13.378;2023-02-08T06:12:07;18.83;;;12.13;;
48487;SDS011;34289;48.572;13.378;2023-02-08T06:14:32;23.13;;;11.82;;
48487;SDS011;34289;48.572;13.378;2023-02-08T06:16:58;15.75;;;11.13;;
48487;SDS011;34289;48.572;13.378;2023-02-08T06:19:24;17.00;;;11.13;;
48487;SDS011;34289;48.572;13.378;2023-02-08T06:21:49;23.45;;;12.50;;
48487;SDS011;34289;48.572;13.378;2023-02-08T06:24:15;17.25;;;13.05;;
48487;SDS011;34289;48.572;13.378;2023-02-08T06:26:41;24.55;;;12.93;;
48487;SDS011;34289;48.572;13.378;2023-02-08T06:29:07;23.38;;;13.73;;
48487;SDS011;34289;48.572;13.378;2023-02-08T06:31:34;26.70;;;13.98;;
48487;SDS011;34289;48.572;13.378;2023-02-08T06:34:00;21.77;;;13.98;;
48487;SDS011;34289;48.572;13.378;2023-02-08T06:36:25;19.88;;;13.15;;
48487;SDS011;34289;48.572;13.378;2023-02-08T06:38:51;25.92;;;12.73;;
48487;SDS011;34289;48.572;13.378;2023-02-08T06:41:17;19.23;;;11.95;;
48487;SDS011;34289;48.572;13.378;2023-02-08T06:43:43;23.02;;;13.43;;
48487;SDS011;34289;48.572;13.378;2023-02-08T06:46:08;24.90;;;13.43;;
48487;SDS011;34289;48.572;13.378;2023-02-08T06:48:34;19.00;;;13.35;;
48487;SDS011;34289;48.572;13.378;2023-02-08T06:51:00;23.73;;;13.63;;
48487;SDS011;34289;48.572;13.378;2023-02-08T06:53:26;16.55;;;11.35;;
48487;SDS011;34289;48.572;13.378;2023-02-08T06:55:51;15.85;;;11.18;;
48487;SDS011;34289;48.572;13.378;2023-02-08T06:58:17;33.38;;;13.50;;
48487;SDS011;34289;48.572;13.378;2023-02-08T07:00:43;39.50;;;16.80;;
48487;SDS011;34289;48.572;13.378;2023-02-08T07:03:12;35.65;;;19.50;;
48487;SDS011;34289;48.572;13.378;2023-02-08T07:05:39;37.08;;;20.20;;
48487;SDS011;34289;48.572;13.378;2023-02-08T07:08:05;30.23;;;15.13;;
48487;SDS011;34289;48.572;13.378;2023-02-08T07:10:31;25.83;;;13.15;;
48487;SDS011;34289;48.572;13.378;2023-02-08T07:12:57;23.85;;;11.88;;
48487;SDS011;34289;48.572;13.378;2023-02-08T07:15:23;22.48;;;13.95;;
48487;SDS011;34289;48.572;13.378;2023-02-08T07:17:48;30.65;;;15.95;;
48487;SDS011;34289;48.572;13.378;2023-02-08T07:20:14;25.77;;;15.25;;
48487;SDS011;34289;48.572;13.378;2023-02-08T07:22:40;26.90;;;17.25;;
48487;SDS011;34289;48.572;13.378;2023-02-08T07:25:07;23.65;;;14.35;;
48487;SDS011;34289;48.572;13.378;2023-02-08T07:27:33;20.23;;;12.35;;
48487;SDS011;34289;48.572;13.378;2023-02-08T07:29:59;19.42;;;14.52;;
48487;SDS011;34289;48.572;13.378;2023-02-08T07:32:25;27.35;;;16.55;;
48487;SDS011;34289;48.572;13.378;2023-02-08T07:34:51;31.77;;;19.25;;
48487;SDS011;34289;48.572;13.378;2023-02-08T07:37:18;26.55;;;19.50;;
48487;SDS011;34289;48.572;13.378;2023-02-08T07:39:43;26.77;;;18.08;;
48487;SDS011;34289;48.572;13.378;2023-02-08T07:42:09;30.02;;;18.92;;
48487;SDS011;34289;48.572;13.378;2023-02-08T07:44:36;25.88;;;19.00;;
48487;SDS011;34289;48.572;13.378;2023-02-08T07:47:02;25.48;;;18.23;;
48487;SDS011;34289;48.572;13.378;2023-02-08T07:49:29;27.17;;;20.60;;
48487;SDS011;34289;48.572;13.378;2023-02-08T07:51:55;24.92;;;19.88;;
48487;SDS011;34289;48.572;13.378;2023-02-08T07:54:20;22.73;;;18.35;;
48487;SDS011;34289;48.572;13.378;2023-02-08T07:56:46;23.95;;;19.85;;
48487;SDS011;34289;48.572;13.378;2023-02-08T07:59:12;23.42;;;19.38;;
48487;SDS011;34289;48.572;13.378;2023-02-08T08:01:38;23.05;;;20.48;;
48487;SDS011;34289;48.572;13.378;2023-02-08T08:04:04;23.08;;;19.67;;
48487;SDS011;34289;48.572;13.378;2023-02-08T08:06:30;24.60;;;19.38;;
48487;SDS011;34289;48.572;13.378;2023-02-08T08:08:56;25.40;;;19.98;;
48487;SDS011;34289;48.572;13.378;2023-02-08T08:11:21;23.05;;;20.13;;
48487;SDS011;34289;48.572;13.378;2023-02-08T08:13:47;23.52;;;19.98;;
48487;SDS011;34289;48.572;13.378;2023-02-08T08:16:13;23.10;;;19.38;;
48487;SDS011;34289;48.572;13.378;2023-02-08T08:18:39;21.02;;;17.98;;
48487;SDS011;34289;48.572;13.378;2023-02-08T08:21:05;20.38;;;17.60;;
48487;SDS011;34289;48.572;13.378;2023-02-08T08:23:31;20.17;;;17.38;;
48487;SDS011;34289;48.572;13.378;2023-02-08T08:26:05;21.20;;;18.33;;
48487;SDS011;34289;48.572;13.378;2023-02-08T08:28:35;21.98;;;17.90;;
48487;SDS011;34289;48.572;13.378;2023-02-08T08:31:01;21.48;;;18.23;;
48487;SDS011;34289;48.572;13.378;2023-02-08T08:33:27;18.52;;;16.42;;
48487;SDS011;34289;48.572;13.378;2023-02-08T08:35:52;19.63;;;17.52;;
48487;SDS011;34289;48.572;13.378;2023-02-08T08:38:18;19.52;;;16.70;;
48487;SDS011;34289;48.572;13.378;2023-02-08T08:40:44;26.73;;;24.33;;
48487;SDS011;34289;48.572;13.378;2023-02-08T08:43:09;27.35;;;24.85;;
48487;SDS011;34289;48.572;13.378;2023-02-08T08:45:35;25.33;;;22.88;;
48487;SDS011;34289;48.572;13.378;2023-02-08T08:48:02;27.10;;;24.60;;
48487;SDS011;34289;48.572;13.378;2023-02-08T08:50:28;26.65;;;24.17;;
48487;SDS011;34289;48.572;13.378;2023-02-08T08:52:53;26.73;;;24.15;;
48487;SDS011;34289;48.572;13.378;2023-02-08T08:55:19;27.95;;;24.95;;
48487;SDS011;34289;48.572;13.378;2023-02-08T08:57:45;27.98;;;25.08;;
48487;SDS011;34289;48.572;13.378;2023-02-08T09:00:10;26.98;;;24.25;;
48487;SDS011;34289;48.572;13.378;2023-02-08T09:02:36;24.65;;;21.95;;
48487;SDS011;34289;48.572;13.378;2023-02-08T09:05:02;26.10;;;23.30;;
48487;SDS011;34289;48.572;13.378;2023-02-08T09:07:29;24.88;;;22.30;;
48487;SDS011;34289;48.572;13.378;2023-02-08T09:09:55;25.45;;;23.00;;
48487;SDS011;34289;48.572;13.378;2023-02-08T09:12:20;23.88;;;21.45;;
48487;SDS011;34289;48.572;13.378;2023-02-08T09:14:46;23.45;;;21.25;;
48487;SDS011;34289;48.572;13.378;2023-02-08T09:17:12;23.25;;;20.90;;
48487;SDS011;34289;48.572;13.378;2023-02-08T09:19:37;23.63;;;21.42;;
48487;SDS011;34289;48.572;13.378;2023-02-08T09:22:05;23.35;;;21.13;;
48487;SDS011;34289;48.572;13.378;2023-02-08T09:24:31;23.20;;;21.10;;
48487;SDS011;34289;48.572;13.378;2023-02-08T09:26:57;25.50;;;22.98;;
48487;SDS011;34289;48.572;13.378;2023-02-08T09:29:23;26.67;;;24.08;;
48487;SDS011;34289;48.572;13.378;2023-02-08T09:31:49;25.98;;;23.38;;
48487;SDS011;34289;48.572;13.378;2023-02-08T09:34:14;25.38;;;22.98;;
48487;SDS011;34289;48.572;13.378;2023-02-08T09:36:40;24.95;;;22.55;;
48487;SDS011;34289;48.572;13.378;2023-02-08T09:39:16;24.08;;;21.98;;
48487;SDS011;34289;48.572;13.378;2023-02-08T09:41:47;24.98;;;22.65;;
48487;SDS011;34289;48.572;13.378;2023-02-08T09:47:31;27.30;;;24.67;;
48487;SDS011;34289;48.572;13.378;2023-02-08T09:50:16;25.80;;;23.30;;
48487;SDS011;34289;48.572;13.378;2023-02-08T09:58:42;25.95;;;23.35;;
48487;SDS011;34289;48.572;13.378;2023-02-08T10:01:31;25.05;;;22.60;;
48487;SDS011;34289;48.572;13.378;2023-02-08T10:06:51;24.58;;;22.05;;
48487;SDS011;34289;48.572;13.378;2023-02-08T10:09:18;25.15;;;22.65;;
48487;SDS011;34289;48.572;13.378;2023-02-08T10:11:56;24.00;;;21.90;;
48487;SDS011;34289;48.572;13.378;2023-02-08T10:14:36;25.65;;;23.17;;
48487;SDS011;34289;48.572;13.378;2023-02-08T10:20:07;27.30;;;24.60;;
48487;SDS011;34289;48.572;13.378;2023-02-08T10:33:20;26.80;;;24.20;;
48487;SDS011;34289;48.572;13.378;2023-02-08T10:35:58;25.00;;;22.80;;
48487;SDS011;34289;48.572;13.378;2023-02-08T10:38:28;24.42;;;22.27;;
48487;SDS011;34289;48.572;13.378;2023-02-08T10:40:57;25.88;;;23.27;;
48487;SDS011;34289;48.572;13.378;2023-02-08T10:43:31;25.42;;;22.95;;
48487;SDS011;34289;48.572;13.378;2023-02-08T10:46:06;25.85;;;22.98;;
48487;SDS011;34289;48.572;13.378;2023-02-08T10:51:32;26.55;;;24.05;;
48487;SDS011;34289;48.572;13.378;2023-02-08T10:53:58;25.52;;;23.02;;
48487;SDS011;34289;48.572;13.378;2023-02-08T10:59:20;23.55;;;21.42;;
48487;SDS011;34289;48.572;13.378;2023-02-08T11:01:49;23.87;;;21.57;;
48487;SDS011;34289;48.572;13.378;2023-02-08T11:04:17;24.00;;;21.77;;
48487;SDS011;34289;48.572;13.378;2023-02-08T11:06:43;24.92;;;22.73;;
48487;SDS011;34289;48.572;13.378;2023-02-08T11:09:20;24.67;;;22.33;;
48487;SDS011;34289;48.572;13.378;2023-02-08T11:11:48;24.88;;;22.30;;
48487;SDS011;34289;48.572;13.378;2023-02-08T11:14:17;23.80;;;21.63;;
48487;SDS011;34289;48.572;13.378;2023-02-08T11:17:03;25.63;;;22.77;;
48487;SDS011;34289;48.572;13.378;2023-02-08T11:19:46;22.90;;;20.77;;
48487;SDS011;34289;48.572;13.378;2023-02-08T11:22:15;26.38;;;24.05;;
48487;SDS011;34289;48.572;13.378;2023-02-08T11:24:44;26.90;;;24.50;;
48487;SDS011;34289;48.572;13.378;2023-02-08T11:27:41;27.88;;;25.35;;
48487;SDS011;34289;48.572;13.378;2023-02-08T11:32:46;27.48;;;24.90;;
48487;SDS011;34289;48.572;13.378;2023-02-08T11:37:51;26.48;;;24.08;;
48487;SDS011;34289;48.572;13.378;2023-02-08T11:40:27;27.23;;;24.77;;
48487;SDS011;34289;48.572;13.378;2023-02-08T11:42:58;27.05;;;24.35;;
48487;SDS011;34289;48.572;13.378;2023-02-08T11:45:24;27.35;;;24.80;;
48487;SDS011;34289;48.572;13.378;2023-02-08T11:47:54;28.88;;;26.27;;
48487;SDS011;34289;48.572;13.378;2023-02-08T11:50:29;26.92;;;24.63;;
48487;SDS011;34289;48.572;13.378;2023-02-08T11:53:00;27.90;;;25.50;;
48487;SDS011;34289;48.572;13.378;2023-02-08T11:55:32;21.65;;;19.50;;
48487;SDS011;34289;48.572;13.378;2023-02-08T11:57:59;19.95;;;17.83;;
48487;SDS011;34289;48.572;13.378;2023-02-08T12:00:36;20.40;;;18.23;;
48487;SDS011;34289;48.572;13.378;2023-02-08T12:03:04;18.77;;;16.95;;
48487;SDS011;34289;48.572;13.378;2023-02-08T12:05:42;20.17;;;18.05;;
48487;SDS011;34289;48.572;13.378;2023-02-08T12:19:59;20.70;;;17.73;;
48487;SDS011;34289;48.572;13.378;2023-02-08T12:22:30;20.10;;;18.30;;
48487;SDS011;34289;48.572;13.378;2023-02-08T12:25:03;18.23;;;16.45;;
48487;SDS011;34289;48.572;13.378;2023-02-08T12:28:13;19.60;;;17.63;;
48487;SDS011;34289;48.572;13.378;2023-02-08T12:30:50;19.25;;;17.45;;
48487;SDS011;34289;48.572;13.378;2023-02-08T12:33:29;18.15;;;16.55;;
48487;SDS011;34289;48.572;13.378;2023-02-08T12:36:05;20.20;;;16.50;;
48487;SDS011;34289;48.572;13.378;2023-02-08T12:38:48;18.35;;;16.60;;
48487;SDS011;34289;48.572;13.378;2023-02-08T12:44:19;19.75;;;17.88;;
48487;SDS011;34289;48.572;13.378;2023-02-08T12:53:18;18.45;;;16.67;;
48487;SDS011;34289;48.572;13.378;2023-02-08T12:55:46;19.20;;;17.38;;
48487;SDS011;34289;48.572;13.378;2023-02-08T12:58:34;19.27;;;17.48;;
48487;SDS011;34289;48.572;13.378;2023-02-08T13:01:13;23.77;;;18.27;;
48487;SDS011;34289;48.572;13.378;2023-02-08T13:03:44;18.75;;;16.65;;
48487;SDS011;34289;48.572;13.378;2023-02-08T13:06:16;18.05;;;16.35;;
48487;SDS011;34289;48.572;13.378;2023-02-08T13:11:23;18.85;;;17.10;;
48487;SDS011;34289;48.572;13.378;2023-02-08T13:14:03;18.70;;;16.90;;
48487;SDS011;34289;48.572;13.378;2023-02-08T13:16:39;19.27;;;17.45;;
48487;SDS011;34289;48.572;13.378;2023-02-08T13:21:50;16.60;;;15.20;;
48487;SDS011;34289;48.572;13.378;2023-02-08T13:24:23;16.13;;;14.75;;
48487;SDS011;34289;48.572;13.378;2023-02-08T13:26:55;19.13;;;17.33;;
48487;SDS011;34289;48.572;13.378;2023-02-08T13:29:21;18.02;;;16.35;;
48487;SDS011;34289;48.572;13.378;2023-02-08T13:31:49;18.15;;;16.45;;
48487;SDS011;34289;48.572;13.378;2023-02-08T13:34:39;16.23;;;14.82;;
48487;SDS011;34289;48.572;13.378;2023-02-08T13:37:22;16.65;;;15.02;;
48487;SDS011;34289;48.572;13.378;2023-02-08T13:39:50;16.00;;;14.35;;
48487;SDS011;34289;48.572;13.378;2023-02-08T13:44:54;15.32;;;14.10;;
48487;SDS011;34289;48.572;13.378;2023-02-08T13:47:23;15.85;;;14.55;;
48487;SDS011;34289;48.572;13.378;2023-02-08T13:50:00;16.23;;;14.88;;
48487;SDS011;34289;48.572;13.378;2023-02-08T14:00:33;15.93;;;14.35;;
48487;SDS011;34289;48.572;13.378;2023-02-08T14:08:15;15.23;;;14.02;;
48487;SDS011;34289;48.572;13.378;2023-02-08T14:11:01;15.65;;;14.25;;
48487;SDS011;34289;48.572;13.378;2023-02-08T14:13:29;14.93;;;13.82;;
48487;SDS011;34289;48.572;13.378;2023-02-08T14:19:03;15.00;;;13.60;;
48487;SDS011;34289;48.572;13.378;2023-02-08T14:21:45;15.10;;;14.00;;
48487;SDS011;34289;48.572;13.378;2023-02-08T14:24:32;14.68;;;13.57;;
48487;SDS011;34289;48.572;13.378;2023-02-08T14:29:58;15.88;;;14.45;;
48487;SDS011;34289;48.572;13.378;2023-02-08T14:32:34;15.60;;;14.35;;
48487;SDS011;34289;48.572;13.378;2023-02-08T14:35:07;15.02;;;13.93;;
48487;SDS011;34289;48.572;13.378;2023-02-08T14:37:34;15.55;;;14.35;;
48487;SDS011;34289;48.572;13.378;2023-02-08T14:45:44;15.52;;;14.23;;
48487;SDS011;34289;48.572;13.378;2023-02-08T14:58:42;15.30;;;14.02;;
48487;SDS011;34289;48.572;13.378;2023-02-08T15:04:06;15.77;;;14.48;;
48487;SDS011;34289;48.572;13.378;2023-02-08T15:09:01;16.08;;;14.88;;
48487;SDS011;34289;48.572;13.378;2023-02-08T15:11:29;15.98;;;14.77;;
48487;SDS011;34289;48.572;13.378;2023-02-08T15:13:57;14.38;;;13.35;;
48487;SDS011;34289;48.572;13.378;2023-02-08T15:16:35;14.85;;;13.75;;
48487;SDS011;34289;48.572;13.378;2023-02-08T15:19:06;15.10;;;13.70;;
48487;SDS011;34289;48.572;13.378;2023-02-08T15:21:33;14.70;;;13.60;;
48487;SDS011;34289;48.572;13.378;2023-02-08T15:24:21;14.95;;;13.85;;
48487;SDS011;34289;48.572;13.378;2023-02-08T15:26:52;15.98;;;14.50;;
48487;SDS011;34289;48.572;13.378;2023-02-08T15:29:20;16.20;;;14.93;;
48487;SDS011;34289;48.572;13.378;2023-02-08T15:31:48;15.05;;;13.52;;
48487;SDS011;34289;48.572;13.378;2023-02-08T15:34:15;14.55;;;13.38;;
48487;SDS011;34289;48.572;13.378;2023-02-08T15:36:44;14.20;;;13.20;;
48487;SDS011;34289;48.572;13.378;2023-02-08T15:42:00;13.25;;;12.27;;
48487;SDS011;34289;48.572;13.378;2023-02-08T15:44:27;14.05;;;12.73;;
48487;SDS011;34289;48.572;13.378;2023-02-08T15:46:55;13.15;;;12.05;;
48487;SDS011;34289;48.572;13.378;2023-02-08T15:49:25;13.52;;;12.18;;
48487;SDS011;34289;48.572;13.378;2023-02-08T15:51:55;13.15;;;12.25;;
48487;SDS011;34289;48.572;13.378;2023-02-08T15:54:21;13.38;;;12.20;;
48487;SDS011;34289;48.572;13.378;2023-02-08T15:56:49;13.57;;;12.57;;
48487;SDS011;34289;48.572;13.378;2023-02-08T15:59:20;13.93;;;12.73;;
48487;SDS011;34289;48.572;13.378;2023-02-08T16:01:54;14.18;;;12.80;;
48487;SDS011;34289;48.572;13.378;2023-02-08T16:04:22;13.75;;;12.55;;
48487;SDS011;34289;48.572;13.378;2023-02-08T16:06:51;13.73;;;12.63;;
48487;SDS011;34289;48.572;13.378;2023-02-08T16:09:20;13.55;;;12.35;;
48487;SDS011;34289;48.572;13.378;2023-02-08T16:11:49;12.30;;;11.40;;
48487;SDS011;34289;48.572;13.378;2023-02-08T16:14:16;11.93;;;11.10;;
48487;SDS011;34289;48.572;13.378;2023-02-08T16:16:49;12.95;;;11.85;;
48487;SDS011;34289;48.572;13.378;2023-02-08T16:21:55;13.05;;;12.07;;
48487;SDS011;34289;48.572;13.378;2023-02-08T16:24:40;15.15;;;14.05;;
48487;SDS011;34289;48.572;13.378;2023-02-08T16:27:13;16.42;;;15.10;;
48487;SDS011;34289;48.572;13.378;2023-02-08T16:29:54;15.82;;;14.73;;
48487;SDS011;34289;48.572;13.378;2023-02-08T16:32:23;16.30;;;14.88;;
48487;SDS011;34289;48.572;13.378;2023-02-08T16:34:55;15.40;;;14.38;;
48487;SDS011;34289;48.572;13.378;2023-02-08T16:37:27;15.43;;;14.27;;
48487;SDS011;34289;48.572;13.378;2023-02-08T16:42:34;15.50;;;14.10;;
48487;SDS011;34289;48.572;13.378;2023-02-08T16:50:04;14.50;;;13.40;;
48487;SDS011;34289;48.572;13.378;2023-02-08T16:52:31;15.25;;;13.68;;
48487;SDS011;34289;48.572;13.378;2023-02-08T16:54:58;14.85;;;13.55;;
48487;SDS011;34289;48.572;13.378;2023-02-08T16:57:24;15.23;;;13.73;;